Terminal Aerodrome Forecast
Issued by NWS

Home | Current Version | Previous Version | Text Only | Print | Product List | Glossary On
Versions: 1 2 3 4 5 6 7 8 9 10 11 12 13 14 15 16 17
000
FTUS43 KAPX 201138
TAFMBL
TAF
KMBL 201138Z 2012/2112 24006KT P6SM SCT035 BKN150
     FM201700 30006KT P6SM SCT045
     FM202100 31005KT P6SM FEW200
     FM210900 00000KT 3SM BR FEW150=

USA.gov is the U.S. government's official web portal to all federal, state and local government web resources and services.